sensor_id;sensor_type;location;lat;lon;timestamp;temperature;humidity
17333;DHT22;8784;50.94667800;7.08448400;2024-03-06T00:00:16;9.10;99.90
17333;DHT22;8784;50.94667800;7.08448400;2024-03-06T00:03:01;9.20;99.90
17333;DHT22;8784;50.94667800;7.08448400;2024-03-06T00:05:28;9.10;99.90
17333;DHT22;8784;50.94667800;7.08448400;2024-03-06T00:07:55;9.10;99.90
17333;DHT22;8784;50.94667800;7.08448400;2024-03-06T00:10:22;9.10;99.90
17333;DHT22;8784;50.94667800;7.08448400;2024-03-06T00:12:50;9.10;99.90
17333;DHT22;8784;50.94667800;7.08448400;2024-03-06T00:15:17;9.00;99.90
17333;DHT22;8784;50.94667800;7.08448400;2024-03-06T00:17:45;9.00;99.90
17333;DHT22;8784;50.94667800;7.08448400;2024-03-06T00:20:12;9.00;99.90
17333;DHT22;8784;50.94667800;7.08448400;2024-03-06T00:22:40;8.90;99.90
17333;DHT22;8784;50.94667800;7.08448400;2024-03-06T00:25:07;8.90;99.90
17333;DHT22;8784;50.94667800;7.08448400;2024-03-06T00:27:35;8.90;99.90
17333;DHT22;8784;50.94667800;7.08448400;2024-03-06T00:30:04;8.90;99.90
17333;DHT22;8784;50.94667800;7.08448400;2024-03-06T00:32:31;8.90;99.90
17333;DHT22;8784;50.94667800;7.08448400;2024-03-06T00:34:57;8.90;99.90
17333;DHT22;8784;50.94667800;7.08448400;2024-03-06T00:37:24;8.90;99.90
17333;DHT22;8784;50.94667800;7.08448400;2024-03-06T00:39:51;8.90;99.90
17333;DHT22;8784;50.94667800;7.08448400;2024-03-06T00:42:18;9.00;99.90
17333;DHT22;8784;50.94667800;7.08448400;2024-03-06T00:44:46;8.90;99.90
17333;DHT22;8784;50.94667800;7.08448400;2024-03-06T00:47:14;8.90;99.90
17333;DHT22;8784;50.94667800;7.08448400;2024-03-06T00:49:41;9.00;99.90
17333;DHT22;8784;50.94667800;7.08448400;2024-03-06T00:52:08;9.00;99.90
17333;DHT22;8784;50.94667800;7.08448400;2024-03-06T00:54:35;8.90;99.90
17333;DHT22;8784;50.94667800;7.08448400;2024-03-06T00:57:02;9.00;99.90
17333;DHT22;8784;50.94667800;7.08448400;2024-03-06T00:59:29;9.00;99.90
17333;DHT22;8784;50.94667800;7.08448400;2024-03-06T01:01:56;8.90;99.90
17333;DHT22;8784;50.94667800;7.08448400;2024-03-06T01:04:24;8.90;99.90
17333;DHT22;8784;50.94667800;7.08448400;2024-03-06T01:06:51;8.90;99.90
17333;DHT22;8784;50.94667800;7.08448400;2024-03-06T01:09:18;8.90;99.90
17333;DHT22;8784;50.94667800;7.08448400;2024-03-06T01:11:45;8.90;99.90
17333;DHT22;8784;50.94667800;7.08448400;2024-03-06T01:14:13;8.90;99.90
17333;DHT22;8784;50.94667800;7.08448400;2024-03-06T01:16:40;8.90;99.90
17333;DHT22;8784;50.94667800;7.08448400;2024-03-06T01:19:07;8.80;99.90
17333;DHT22;8784;50.94667800;7.08448400;2024-03-06T01:21:35;8.80;99.90
17333;DHT22;8784;50.94667800;7.08448400;2024-03-06T01:24:02;8.80;99.90
17333;DHT22;8784;50.94667800;7.08448400;2024-03-06T01:26:29;8.80;99.90
17333;DHT22;8784;50.94667800;7.08448400;2024-03-06T01:28:56;8.70;99.90
17333;DHT22;8784;50.94667800;7.08448400;2024-03-06T01:31:23;8.70;99.90
17333;DHT22;8784;50.94667800;7.08448400;2024-03-06T01:33:50;8.70;99.90
17333;DHT22;8784;50.94667800;7.08448400;2024-03-06T01:36:17;8.60;99.90
17333;DHT22;8784;50.94667800;7.08448400;2024-03-06T01:38:45;8.60;99.90
17333;DHT22;8784;50.94667800;7.08448400;2024-03-06T01:41:13;8.50;99.90
17333;DHT22;8784;50.94667800;7.08448400;2024-03-06T01:43:40;8.50;99.90
17333;DHT22;8784;50.94667800;7.08448400;2024-03-06T01:46:07;8.40;99.90
17333;DHT22;8784;50.94667800;7.08448400;2024-03-06T01:48:34;8.30;99.90
17333;DHT22;8784;50.94667800;7.08448400;2024-03-06T01:51:02;8.30;99.90
17333;DHT22;8784;50.94667800;7.08448400;2024-03-06T01:53:32;8.20;99.90
17333;DHT22;8784;50.94667800;7.08448400;2024-03-06T01:56:02;8.10;99.90
17333;DHT22;8784;50.94667800;7.08448400;2024-03-06T01:58:30;8.10;99.90
17333;DHT22;8784;50.94667800;7.08448400;2024-03-06T02:00:57;8.00;99.90
17333;DHT22;8784;50.94667800;7.08448400;2024-03-06T02:03:25;7.90;99.90
17333;DHT22;8784;50.94667800;7.08448400;2024-03-06T02:05:53;7.90;99.90
17333;DHT22;8784;50.94667800;7.08448400;2024-03-06T02:08:20;7.90;99.90
17333;DHT22;8784;50.94667800;7.08448400;2024-03-06T02:10:47;7.80;99.90
17333;DHT22;8784;50.94667800;7.08448400;2024-03-06T02:13:15;7.80;99.90
17333;DHT22;8784;50.94667800;7.08448400;2024-03-06T02:15:44;7.80;99.90
17333;DHT22;8784;50.94667800;7.08448400;2024-03-06T02:18:11;7.90;99.90
17333;DHT22;8784;50.94667800;7.08448400;2024-03-06T02:20:40;7.90;99.90
17333;DHT22;8784;50.94667800;7.08448400;2024-03-06T02:23:07;7.90;99.90
17333;DHT22;8784;50.94667800;7.08448400;2024-03-06T02:25:34;8.00;99.90
17333;DHT22;8784;50.94667800;7.08448400;2024-03-06T02:28:01;8.10;99.90
17333;DHT22;8784;50.94667800;7.08448400;2024-03-06T02:30:28;8.10;99.90
17333;DHT22;8784;50.94667800;7.08448400;2024-03-06T02:32:56;8.20;99.90
17333;DHT22;8784;50.94667800;7.08448400;2024-03-06T02:35:24;8.20;99.90
17333;DHT22;8784;50.94667800;7.08448400;2024-03-06T02:37:52;8.20;99.90
17333;DHT22;8784;50.94667800;7.08448400;2024-03-06T02:40:19;8.20;99.90
17333;DHT22;8784;50.94667800;7.08448400;2024-03-06T02:42:46;8.20;99.90
17333;DHT22;8784;50.94667800;7.08448400;2024-03-06T02:45:13;8.30;99.90
17333;DHT22;8784;50.94667800;7.08448400;2024-03-06T02:47:40;8.30;99.90
17333;DHT22;8784;50.94667800;7.08448400;2024-03-06T02:50:07;8.40;99.90
17333;DHT22;8784;50.94667800;7.08448400;2024-03-06T02:52:34;8.40;99.90
17333;DHT22;8784;50.94667800;7.08448400;2024-03-06T02:55:04;8.40;99.90
17333;DHT22;8784;50.94667800;7.08448400;2024-03-06T02:57:31;8.40;99.90
17333;DHT22;8784;50.94667800;7.08448400;2024-03-06T02:59:58;8.50;99.90
17333;DHT22;8784;50.94667800;7.08448400;2024-03-06T03:02:25;8.40;99.90
17333;DHT22;8784;50.94667800;7.08448400;2024-03-06T03:04:52;8.40;99.90
17333;DHT22;8784;50.94667800;7.08448400;2024-03-06T03:07:19;8.50;99.90
17333;DHT22;8784;50.94667800;7.08448400;2024-03-06T03:09:46;8.50;99.90
17333;DHT22;8784;50.94667800;7.08448400;2024-03-06T03:12:15;8.50;99.90
17333;DHT22;8784;50.94667800;7.08448400;2024-03-06T03:14:42;8.50;99.90
17333;DHT22;8784;50.94667800;7.08448400;2024-03-06T03:17:09;8.50;99.90
17333;DHT22;8784;50.94667800;7.08448400;2024-03-06T03:19:37;8.50;99.90
17333;DHT22;8784;50.94667800;7.08448400;2024-03-06T03:22:05;8.50;99.90
17333;DHT22;8784;50.94667800;7.08448400;2024-03-06T03:24:33;8.50;99.90
17333;DHT22;8784;50.94667800;7.08448400;2024-03-06T03:27:00;8.50;99.90
17333;DHT22;8784;50.94667800;7.08448400;2024-03-06T03:29:29;8.50;99.90
17333;DHT22;8784;50.94667800;7.08448400;2024-03-06T03:31:56;8.50;99.90
17333;DHT22;8784;50.94667800;7.08448400;2024-03-06T03:34:23;8.40;99.90
17333;DHT22;8784;50.94667800;7.08448400;2024-03-06T03:36:50;8.40;99.90
17333;DHT22;8784;50.94667800;7.08448400;2024-03-06T03:39:17;8.40;99.90
17333;DHT22;8784;50.94667800;7.08448400;2024-03-06T03:41:46;8.40;99.90
17333;DHT22;8784;50.94667800;7.08448400;2024-03-06T03:44:13;8.40;99.90
17333;DHT22;8784;50.94667800;7.08448400;2024-03-06T03:46:42;8.40;99.90
17333;DHT22;8784;50.94667800;7.08448400;2024-03-06T03:49:11;8.40;99.90
17333;DHT22;8784;50.94667800;7.08448400;2024-03-06T03:51:39;8.40;99.90
17333;DHT22;8784;50.94667800;7.08448400;2024-03-06T03:54:06;8.40;99.90
17333;DHT22;8784;50.94667800;7.08448400;2024-03-06T03:56:33;8.40;99.90
17333;DHT22;8784;50.94667800;7.08448400;2024-03-06T03:59:00;8.40;99.90
17333;DHT22;8784;50.94667800;7.08448400;2024-03-06T04:01:30;8.40;99.90
17333;DHT22;8784;50.94667800;7.08448400;2024-03-06T04:03:58;8.30;99.90
17333;DHT22;8784;50.94667800;7.08448400;2024-03-06T04:06:25;8.40;99.90
17333;DHT22;8784;50.94667800;7.08448400;2024-03-06T04:08:52;8.30;99.90
17333;DHT22;8784;50.94667800;7.08448400;2024-03-06T04:11:19;8.40;99.90
17333;DHT22;8784;50.94667800;7.08448400;2024-03-06T04:13:46;8.40;99.90
17333;DHT22;8784;50.94667800;7.08448400;2024-03-06T04:16:16;8.40;99.90
17333;DHT22;8784;50.94667800;7.08448400;2024-03-06T04:18:44;8.40;99.90
17333;DHT22;8784;50.94667800;7.08448400;2024-03-06T04:21:13;8.40;99.90
17333;DHT22;8784;50.94667800;7.08448400;2024-03-06T04:23:40;8.40;99.90
17333;DHT22;8784;50.94667800;7.08448400;2024-03-06T04:26:07;8.40;99.90
17333;DHT22;8784;50.94667800;7.08448400;2024-03-06T04:28:34;8.40;99.90
17333;DHT22;8784;50.94667800;7.08448400;2024-03-06T04:31:01;8.40;99.90
17333;DHT22;8784;50.94667800;7.08448400;2024-03-06T04:33:28;8.30;99.90
17333;DHT22;8784;50.94667800;7.08448400;2024-03-06T04:35:55;8.30;99.90
17333;DHT22;8784;50.94667800;7.08448400;2024-03-06T04:38:24;8.30;99.90
17333;DHT22;8784;50.94667800;7.08448400;2024-03-06T04:40:51;8.20;99.90
17333;DHT22;8784;50.94667800;7.08448400;2024-03-06T04:43:18;8.20;99.90
17333;DHT22;8784;50.94667800;7.08448400;2024-03-06T04:45:45;8.20;99.90
17333;DHT22;8784;50.94667800;7.08448400;2024-03-06T04:48:12;8.20;99.90
17333;DHT22;8784;50.94667800;7.08448400;2024-03-06T04:50:39;8.20;99.90
17333;DHT22;8784;50.94667800;7.08448400;2024-03-06T04:53:06;8.20;99.90
17333;DHT22;8784;50.94667800;7.08448400;2024-03-06T04:55:35;8.20;99.90
17333;DHT22;8784;50.94667800;7.08448400;2024-03-06T04:58:02;8.10;99.90
17333;DHT22;8784;50.94667800;7.08448400;2024-03-06T05:00:30;8.20;99.90
17333;DHT22;8784;50.94667800;7.08448400;2024-03-06T05:02:57;8.20;99.90
17333;DHT22;8784;50.94667800;7.08448400;2024-03-06T05:05:24;8.10;99.90
17333;DHT22;8784;50.94667800;7.08448400;2024-03-06T05:07:52;8.00;99.90
17333;DHT22;8784;50.94667800;7.08448400;2024-03-06T05:10:19;7.90;99.90
17333;DHT22;8784;50.94667800;7.08448400;2024-03-06T05:12:47;7.90;99.90
17333;DHT22;8784;50.94667800;7.08448400;2024-03-06T05:15:14;7.90;99.90
17333;DHT22;8784;50.94667800;7.08448400;2024-03-06T05:17:41;7.90;99.90
17333;DHT22;8784;50.94667800;7.08448400;2024-03-06T05:20:09;7.80;99.90
17333;DHT22;8784;50.94667800;7.08448400;2024-03-06T05:22:37;7.90;99.90
17333;DHT22;8784;50.94667800;7.08448400;2024-03-06T05:25:04;8.00;99.90
17333;DHT22;8784;50.94667800;7.08448400;2024-03-06T05:27:31;8.00;99.90
17333;DHT22;8784;50.94667800;7.08448400;2024-03-06T05:29:59;8.10;99.90
17333;DHT22;8784;50.94667800;7.08448400;2024-03-06T05:32:26;8.10;99.90
17333;DHT22;8784;50.94667800;7.08448400;2024-03-06T05:34:53;8.10;99.90
17333;DHT22;8784;50.94667800;7.08448400;2024-03-06T05:37:20;8.10;99.90
17333;DHT22;8784;50.94667800;7.08448400;2024-03-06T05:39:47;8.10;99.90
17333;DHT22;8784;50.94667800;7.08448400;2024-03-06T05:42:14;8.00;99.90
17333;DHT22;8784;50.94667800;7.08448400;2024-03-06T05:44:41;8.00;99.90
17333;DHT22;8784;50.94667800;7.08448400;2024-03-06T05:47:09;8.00;99.90
17333;DHT22;8784;50.94667800;7.08448400;2024-03-06T05:49:36;8.00;99.90
17333;DHT22;8784;50.94667800;7.08448400;2024-03-06T05:52:03;7.80;99.90
17333;DHT22;8784;50.94667800;7.08448400;2024-03-06T05:54:30;7.80;99.90
17333;DHT22;8784;50.94667800;7.08448400;2024-03-06T05:56:59;7.70;99.90
17333;DHT22;8784;50.94667800;7.08448400;2024-03-06T05:59:26;7.80;99.90
17333;DHT22;8784;50.94667800;7.08448400;2024-03-06T06:01:54;7.80;99.90
17333;DHT22;8784;50.94667800;7.08448400;2024-03-06T06:04:23;7.70;99.90
17333;DHT22;8784;50.94667800;7.08448400;2024-03-06T06:06:51;7.90;99.90
17333;DHT22;8784;50.94667800;7.08448400;2024-03-06T06:09:18;7.80;99.90
17333;DHT22;8784;50.94667800;7.08448400;2024-03-06T06:11:46;7.80;99.90
17333;DHT22;8784;50.94667800;7.08448400;2024-03-06T06:14:14;7.80;99.90
17333;DHT22;8784;50.94667800;7.08448400;2024-03-06T06:16:42;7.90;99.90
17333;DHT22;8784;50.94667800;7.08448400;2024-03-06T06:19:09;7.90;99.90
17333;DHT22;8784;50.94667800;7.08448400;2024-03-06T06:21:37;7.80;99.90
17333;DHT22;8784;50.94667800;7.08448400;2024-03-06T06:24:05;7.80;99.90
17333;DHT22;8784;50.94667800;7.08448400;2024-03-06T06:26:32;7.80;99.90
17333;DHT22;8784;50.94667800;7.08448400;2024-03-06T06:28:59;7.90;99.90
17333;DHT22;8784;50.94667800;7.08448400;2024-03-06T06:31:28;7.90;99.90
17333;DHT22;8784;50.94667800;7.08448400;2024-03-06T06:33:55;7.90;99.90
17333;DHT22;8784;50.94667800;7.08448400;2024-03-06T06:36:23;7.90;99.90
17333;DHT22;8784;50.94667800;7.08448400;2024-03-06T06:38:53;7.90;99.90
17333;DHT22;8784;50.94667800;7.08448400;2024-03-06T06:41:21;8.00;99.90
17333;DHT22;8784;50.94667800;7.08448400;2024-03-06T06:43:50;8.00;99.90
17333;DHT22;8784;50.94667800;7.08448400;2024-03-06T06:46:18;8.00;99.90
17333;DHT22;8784;50.94667800;7.08448400;2024-03-06T06:48:46;8.00;99.90
17333;DHT22;8784;50.94667800;7.08448400;2024-03-06T06:51:14;8.00;99.90
17333;DHT22;8784;50.94667800;7.08448400;2024-03-06T06:53:41;8.00;99.90
17333;DHT22;8784;50.94667800;7.08448400;2024-03-06T06:56:10;8.00;99.90
17333;DHT22;8784;50.94667800;7.08448400;2024-03-06T06:58:37;7.90;99.90
17333;DHT22;8784;50.94667800;7.08448400;2024-03-06T07:01:08;7.90;99.90
17333;DHT22;8784;50.94667800;7.08448400;2024-03-06T07:03:35;7.80;99.90
17333;DHT22;8784;50.94667800;7.08448400;2024-03-06T07:06:03;7.80;99.90
17333;DHT22;8784;50.94667800;7.08448400;2024-03-06T07:08:30;7.90;99.90
17333;DHT22;8784;50.94667800;7.08448400;2024-03-06T07:10:57;8.00;99.90
17333;DHT22;8784;50.94667800;7.08448400;2024-03-06T07:13:26;8.00;99.90
17333;DHT22;8784;50.94667800;7.08448400;2024-03-06T07:15:53;8.00;99.90
17333;DHT22;8784;50.94667800;7.08448400;2024-03-06T07:18:20;8.10;99.90
17333;DHT22;8784;50.94667800;7.08448400;2024-03-06T07:20:47;8.20;99.90
17333;DHT22;8784;50.94667800;7.08448400;2024-03-06T07:23:14;8.30;99.90
17333;DHT22;8784;50.94667800;7.08448400;2024-03-06T07:25:41;8.40;99.90
17333;DHT22;8784;50.94667800;7.08448400;2024-03-06T07:28:08;8.50;99.90
17333;DHT22;8784;50.94667800;7.08448400;2024-03-06T07:30:36;8.60;99.90
17333;DHT22;8784;50.94667800;7.08448400;2024-03-06T07:33:04;8.70;99.90
17333;DHT22;8784;50.94667800;7.08448400;2024-03-06T07:35:33;8.80;99.90
17333;DHT22;8784;50.94667800;7.08448400;2024-03-06T07:38:02;8.90;99.90
17333;DHT22;8784;50.94667800;7.08448400;2024-03-06T07:40:30;9.10;99.90
17333;DHT22;8784;50.94667800;7.08448400;2024-03-06T07:42:58;9.20;99.90
17333;DHT22;8784;50.94667800;7.08448400;2024-03-06T07:45:25;9.40;99.90
17333;DHT22;8784;50.94667800;7.08448400;2024-03-06T07:47:54;9.60;99.90
17333;DHT22;8784;50.94667800;7.08448400;2024-03-06T07:50:21;9.70;99.90
17333;DHT22;8784;50.94667800;7.08448400;2024-03-06T07:52:48;9.70;99.90
17333;DHT22;8784;50.94667800;7.08448400;2024-03-06T07:55:15;9.80;99.90
17333;DHT22;8784;50.94667800;7.08448400;2024-03-06T07:57:44;9.80;99.90
17333;DHT22;8784;50.94667800;7.08448400;2024-03-06T08:00:12;9.90;99.90
17333;DHT22;8784;50.94667800;7.08448400;2024-03-06T08:02:41;9.90;99.90
17333;DHT22;8784;50.94667800;7.08448400;2024-03-06T08:05:11;10.00;99.90
17333;DHT22;8784;50.94667800;7.08448400;2024-03-06T08:07:40;10.10;99.90
17333;DHT22;8784;50.94667800;7.08448400;2024-03-06T08:10:09;10.20;99.90
17333;DHT22;8784;50.94667800;7.08448400;2024-03-06T08:12:39;10.40;99.90
17333;DHT22;8784;50.94667800;7.08448400;2024-03-06T08:15:07;10.50;99.90
17333;DHT22;8784;50.94667800;7.08448400;2024-03-06T08:17:38;10.60;99.90
17333;DHT22;8784;50.94667800;7.08448400;2024-03-06T08:20:06;10.70;99.90
17333;DHT22;8784;50.94667800;7.08448400;2024-03-06T08:22:35;10.90;99.90
17333;DHT22;8784;50.94667800;7.08448400;2024-03-06T08:25:05;11.00;99.90
17333;DHT22;8784;50.94667800;7.08448400;2024-03-06T08:27:34;11.10;99.90
17333;DHT22;8784;50.94667800;7.08448400;2024-03-06T08:30:01;11.30;99.90
17333;DHT22;8784;50.94667800;7.08448400;2024-03-06T08:32:30;11.40;99.90
17333;DHT22;8784;50.94667800;7.08448400;2024-03-06T08:34:59;11.30;99.90
17333;DHT22;8784;50.94667800;7.08448400;2024-03-06T08:37:26;11.30;99.90
17333;DHT22;8784;50.94667800;7.08448400;2024-03-06T08:39:54;11.30;99.90
17333;DHT22;8784;50.94667800;7.08448400;2024-03-06T08:42:22;11.30;99.90
17333;DHT22;8784;50.94667800;7.08448400;2024-03-06T08:44:49;11.50;99.90
17333;DHT22;8784;50.94667800;7.08448400;2024-03-06T08:47:16;11.60;99.90
17333;DHT22;8784;50.94667800;7.08448400;2024-03-06T08:49:44;11.60;99.90
17333;DHT22;8784;50.94667800;7.08448400;2024-03-06T08:52:12;11.70;99.90
17333;DHT22;8784;50.94667800;7.08448400;2024-03-06T08:54:40;11.80;99.90
17333;DHT22;8784;50.94667800;7.08448400;2024-03-06T08:57:10;11.90;99.90
17333;DHT22;8784;50.94667800;7.08448400;2024-03-06T08:59:38;12.00;99.90
17333;DHT22;8784;50.94667800;7.08448400;2024-03-06T09:02:15;12.00;99.90
17333;DHT22;8784;50.94667800;7.08448400;2024-03-06T09:04:43;12.00;99.90
17333;DHT22;8784;50.94667800;7.08448400;2024-03-06T09:07:11;12.30;99.90
17333;DHT22;8784;50.94667800;7.08448400;2024-03-06T09:09:40;12.30;99.90
17333;DHT22;8784;50.94667800;7.08448400;2024-03-06T09:12:10;12.40;99.90
17333;DHT22;8784;50.94667800;7.08448400;2024-03-06T09:14:37;12.50;99.90
17333;DHT22;8784;50.94667800;7.08448400;2024-03-06T09:17:05;12.60;99.90
17333;DHT22;8784;50.94667800;7.08448400;2024-03-06T09:19:33;12.60;99.90
17333;DHT22;8784;50.94667800;7.08448400;2024-03-06T09:22:00;12.80;99.90
17333;DHT22;8784;50.94667800;7.08448400;2024-03-06T09:24:28;13.30;99.90
17333;DHT22;8784;50.94667800;7.08448400;2024-03-06T09:26:55;13.70;99.90
17333;DHT22;8784;50.94667800;7.08448400;2024-03-06T09:29:24;14.00;99.90
17333;DHT22;8784;50.94667800;7.08448400;2024-03-06T09:31:51;13.80;99.90
17333;DHT22;8784;50.94667800;7.08448400;2024-03-06T09:34:18;13.70;99.90
17333;DHT22;8784;50.94667800;7.08448400;2024-03-06T09:36:48;13.60;99.90
17333;DHT22;8784;50.94667800;7.08448400;2024-03-06T09:39:16;13.40;99.90
17333;DHT22;8784;50.94667800;7.08448400;2024-03-06T09:41:46;13.20;99.90
17333;DHT22;8784;50.94667800;7.08448400;2024-03-06T09:44:13;13.00;99.90
17333;DHT22;8784;50.94667800;7.08448400;2024-03-06T09:46:44;12.70;99.90
17333;DHT22;8784;50.94667800;7.08448400;2024-03-06T09:49:12;12.20;99.90
17333;DHT22;8784;50.94667800;7.08448400;2024-03-06T09:51:43;12.00;99.90
17333;DHT22;8784;50.94667800;7.08448400;2024-03-06T09:54:11;12.00;99.90
17333;DHT22;8784;50.94667800;7.08448400;2024-03-06T09:56:41;12.10;99.90
17333;DHT22;8784;50.94667800;7.08448400;2024-03-06T09:59:09;12.40;99.90
17333;DHT22;8784;50.94667800;7.08448400;2024-03-06T10:01:40;13.80;99.90
17333;DHT22;8784;50.94667800;7.08448400;2024-03-06T10:04:23;15.50;99.90
17333;DHT22;8784;50.94667800;7.08448400;2024-03-06T10:06:50;16.10;99.90
17333;DHT22;8784;50.94667800;7.08448400;2024-03-06T10:09:20;15.70;99.90
17333;DHT22;8784;50.94667800;7.08448400;2024-03-06T10:11:48;15.70;99.90
17333;DHT22;8784;50.94667800;7.08448400;2024-03-06T10:14:15;16.40;99.90
17333;DHT22;8784;50.94667800;7.08448400;2024-03-06T10:16:55;16.70;99.90
17333;DHT22;8784;50.94667800;7.08448400;2024-03-06T10:19:25;16.70;99.90
17333;DHT22;8784;50.94667800;7.08448400;2024-03-06T10:21:53;16.60;99.90
17333;DHT22;8784;50.94667800;7.08448400;2024-03-06T10:24:21;17.50;99.90
17333;DHT22;8784;50.94667800;7.08448400;2024-03-06T10:26:50;18.30;99.90
17333;DHT22;8784;50.94667800;7.08448400;2024-03-06T10:29:20;18.30;99.90
17333;DHT22;8784;50.94667800;7.08448400;2024-03-06T10:31:49;17.70;99.00
17333;DHT22;8784;50.94667800;7.08448400;2024-03-06T10:34:16;17.50;99.20
17333;DHT22;8784;50.94667800;7.08448400;2024-03-06T10:36:45;17.80;99.30
17333;DHT22;8784;50.94667800;7.08448400;2024-03-06T10:39:12;18.10;98.70
17333;DHT22;8784;50.94667800;7.08448400;2024-03-06T10:41:41;18.00;97.40
17333;DHT22;8784;50.94667800;7.08448400;2024-03-06T10:44:11;17.80;97.10
17333;DHT22;8784;50.94667800;7.08448400;2024-03-06T10:46:43;17.50;96.60
17333;DHT22;8784;50.94667800;7.08448400;2024-03-06T10:49:13;17.10;96.70
17333;DHT22;8784;50.94667800;7.08448400;2024-03-06T10:51:40;17.40;97.60
17333;DHT22;8784;50.94667800;7.08448400;2024-03-06T10:54:11;17.60;97.30
17333;DHT22;8784;50.94667800;7.08448400;2024-03-06T10:56:40;17.30;96.60
17333;DHT22;8784;50.94667800;7.08448400;2024-03-06T10:59:10;16.70;95.90
17333;DHT22;8784;50.94667800;7.08448400;2024-03-06T11:01:39;15.90;96.70
17333;DHT22;8784;50.94667800;7.08448400;2024-03-06T11:04:06;15.50;97.50
17333;DHT22;8784;50.94667800;7.08448400;2024-03-06T11:06:33;15.20;97.90
17333;DHT22;8784;50.94667800;7.08448400;2024-03-06T11:09:01;14.90;98.20
17333;DHT22;8784;50.94667800;7.08448400;2024-03-06T11:11:30;14.70;98.30
17333;DHT22;8784;50.94667800;7.08448400;2024-03-06T11:14:00;14.60;99.30
17333;DHT22;8784;50.94667800;7.08448400;2024-03-06T11:16:29;14.60;99.40
17333;DHT22;8784;50.94667800;7.08448400;2024-03-06T11:19:05;14.50;99.60
17333;DHT22;8784;50.94667800;7.08448400;2024-03-06T11:21:35;14.40;99.90
17333;DHT22;8784;50.94667800;7.08448400;2024-03-06T11:24:17;14.30;99.90
17333;DHT22;8784;50.94667800;7.08448400;2024-03-06T11:26:57;14.20;99.90
17333;DHT22;8784;50.94667800;7.08448400;2024-03-06T11:29:28;14.20;99.90
17333;DHT22;8784;50.94667800;7.08448400;2024-03-06T11:32:07;14.10;99.90
17333;DHT22;8784;50.94667800;7.08448400;2024-03-06T11:34:36;14.00;99.90
17333;DHT22;8784;50.94667800;7.08448400;2024-03-06T11:37:04;13.80;99.90
17333;DHT22;8784;50.94667800;7.08448400;2024-03-06T11:39:35;13.50;99.90
17333;DHT22;8784;50.94667800;7.08448400;2024-03-06T11:42:05;13.40;99.90
17333;DHT22;8784;50.94667800;7.08448400;2024-03-06T11:44:34;13.40;99.90
17333;DHT22;8784;50.94667800;7.08448400;2024-03-06T11:47:02;13.30;99.90
17333;DHT22;8784;50.94667800;7.08448400;2024-03-06T11:49:30;13.30;99.90
17333;DHT22;8784;50.94667800;7.08448400;2024-03-06T11:52:01;13.30;99.90
17333;DHT22;8784;50.94667800;7.08448400;2024-03-06T11:54:30;13.50;99.90
17333;DHT22;8784;50.94667800;7.08448400;2024-03-06T11:57:00;13.70;99.90
17333;DHT22;8784;50.94667800;7.08448400;2024-03-06T11:59:29;13.70;99.90
17333;DHT22;8784;50.94667800;7.08448400;2024-03-06T12:01:59;13.70;99.90
17333;DHT22;8784;50.94667800;7.08448400;2024-03-06T12:04:27;13.60;99.90
17333;DHT22;8784;50.94667800;7.08448400;2024-03-06T12:06:57;13.50;99.90
17333;DHT22;8784;50.94667800;7.08448400;2024-03-06T12:09:25;13.40;99.90
17333;DHT22;8784;50.94667800;7.08448400;2024-03-06T12:11:52;13.40;99.90
17333;DHT22;8784;50.94667800;7.08448400;2024-03-06T12:14:20;13.40;99.90
17333;DHT22;8784;50.94667800;7.08448400;2024-03-06T12:16:56;13.40;99.90
17333;DHT22;8784;50.94667800;7.08448400;2024-03-06T12:19:25;13.60;99.90
17333;DHT22;8784;50.94667800;7.08448400;2024-03-06T12:21:52;13.70;99.90
17333;DHT22;8784;50.94667800;7.08448400;2024-03-06T12:24:20;13.80;99.90
17333;DHT22;8784;50.94667800;7.08448400;2024-03-06T12:26:58;14.00;99.90
17333;DHT22;8784;50.94667800;7.08448400;2024-03-06T12:29:28;14.10;99.90
17333;DHT22;8784;50.94667800;7.08448400;2024-03-06T12:31:58;14.10;99.90
17333;DHT22;8784;50.94667800;7.08448400;2024-03-06T12:34:25;14.20;99.90
17333;DHT22;8784;50.94667800;7.08448400;2024-03-06T12:36:52;14.20;99.90
17333;DHT22;8784;50.94667800;7.08448400;2024-03-06T12:39:19;14.20;99.90
17333;DHT22;8784;50.94667800;7.08448400;2024-03-06T12:41:49;14.20;99.90
17333;DHT22;8784;50.94667800;7.08448400;2024-03-06T12:44:16;14.30;99.90
17333;DHT22;8784;50.94667800;7.08448400;2024-03-06T12:46:43;14.30;99.90
17333;DHT22;8784;50.94667800;7.08448400;2024-03-06T12:49:12;14.40;99.90
17333;DHT22;8784;50.94667800;7.08448400;2024-03-06T12:51:38;14.50;99.70
17333;DHT22;8784;50.94667800;7.08448400;2024-03-06T12:54:07;14.60;99.30
17333;DHT22;8784;50.94667800;7.08448400;2024-03-06T12:56:35;14.60;98.90
17333;DHT22;8784;50.94667800;7.08448400;2024-03-06T12:59:02;14.70;99.00
17333;DHT22;8784;50.94667800;7.08448400;2024-03-06T13:01:30;14.70;98.70
17333;DHT22;8784;50.94667800;7.08448400;2024-03-06T13:04:00;14.60;97.90
17333;DHT22;8784;50.94667800;7.08448400;2024-03-06T13:06:29;14.60;98.40
17333;DHT22;8784;50.94667800;7.08448400;2024-03-06T13:08:56;14.70;98.80
17333;DHT22;8784;50.94667800;7.08448400;2024-03-06T13:11:23;14.90;98.70
17333;DHT22;8784;50.94667800;7.08448400;2024-03-06T13:13:51;15.00;98.80
17333;DHT22;8784;50.94667800;7.08448400;2024-03-06T13:16:19;15.20;98.20
17333;DHT22;8784;50.94667800;7.08448400;2024-03-06T13:18:47;15.20;97.60
17333;DHT22;8784;50.94667800;7.08448400;2024-03-06T13:21:15;15.10;97.50
17333;DHT22;8784;50.94667800;7.08448400;2024-03-06T13:23:43;15.10;97.40
17333;DHT22;8784;50.94667800;7.08448400;2024-03-06T13:26:10;15.20;97.20
17333;DHT22;8784;50.94667800;7.08448400;2024-03-06T13:28:39;15.20;96.30
17333;DHT22;8784;50.94667800;7.08448400;2024-03-06T13:31:06;15.20;95.80
17333;DHT22;8784;50.94667800;7.08448400;2024-03-06T13:33:33;15.00;94.80
17333;DHT22;8784;50.94667800;7.08448400;2024-03-06T13:36:00;14.90;95.00
17333;DHT22;8784;50.94667800;7.08448400;2024-03-06T13:38:29;14.90;94.20
17333;DHT22;8784;50.94667800;7.08448400;2024-03-06T13:40:57;15.00;94.70
17333;DHT22;8784;50.94667800;7.08448400;2024-03-06T13:43:24;15.10;94.70
17333;DHT22;8784;50.94667800;7.08448400;2024-03-06T13:45:51;15.20;94.20